• Join FlightAware (Why Join?)
  • Login
  • US Flag 
04:14AM EDT


 

Airport Tracker/Info


-or-


 

Live Flight TrackerFlight Track Log ✈ SKW4497 ✈ 11-May-2013 ✈ KSLC - KIAH

Flight Track Log - Related Links

Times and Time Zones

All times are in EDT time to prevent confusion due to time zone crossing. See the SKW4497 flight status page for this flight to view local times or setup timezone preferences in your user account.

Time Position Orientation Groundspeed Altitude Reporting Facility
EDT Latitude Longitude Course Direction KTS MPH feet Rate Location/Type
11:50AM 40.7583 -111.9644 143° Southeast 172 198 5,100  Level Salt Lake Center
11:52AM 40.6450 -111.9567 177° South 243 280 8,400 1,860 Climbing Salt Lake Center
11:53AM 40.3212 -111.9333 180° South  Level FlightAware Approximate
11:53AM 40.5569 -111.9356 170° South 273 314 10,900  Level Salt Lake Center
11:54AM 40.2128 -111.8929 150° Southeast  Level FlightAware Approximate
11:54AM 40.4797 -111.9144 168° South 284 327 13,200  Level Salt Lake Center
11:55AM 40.1134 -111.8134 143° Southeast  Level FlightAware Approximate
11:55AM 40.3997 -111.8931 168° South 293 337 15,500  Level Salt Lake Center
11:56AM 40.3183 -111.8708 168° South 302 348 17,500 1,680 Climbing Salt Lake Center
11:57AM 40.2328 -111.8475 168° South 316 364 19,000 1,680 Climbing Salt Lake Center
11:58AM 40.1439 -111.8219 168° South 327 376 21,000 1,200 Climbing Salt Lake Center
11:59AM 40.0558 -111.7678 155° Southeast 368 423 21,500 1,140 Climbing Salt Lake Center
12:00PM 39.9458 -111.6847 150° Southeast 385 443 23,400 1,500 Climbing Salt Lake Center
12:01PM 39.8653 -111.6239 150° Southeast 385 443 24,600 1,200 Climbing Salt Lake Center
12:02PM 39.7586 -111.5411 149° Southeast 393 452 25,900 1,140 Climbing Salt Lake Center
12:03PM 39.6575 -111.4647 150° Southeast 411 473 27,000 1,020 Climbing Salt Lake Center
12:04PM 39.5550 -111.3878 150° Southeast 424 488 28,100 1,020 Climbing Salt Lake Center
12:05PM 39.4475 -111.3211 154° Southeast 428 493 29,200 1,020 Climbing Salt Lake Center
12:06PM 39.3208 -111.2450 155° Southeast 437 503 30,300 1,020 Climbing Salt Lake Center
12:07PM 39.2144 -111.1800 155° Southeast 441 507 31,300 900 Climbing Salt Lake Center
12:08PM 39.1069 -111.1144 155° Southeast 444 511 32,200 1,020 Climbing Salt Lake Center
12:09PM 38.9822 -111.0389 155° Southeast 444 511 33,500 900 Climbing Salt Lake Center
12:10PM 38.8817 -110.9786 155° Southeast 442 509 34,100 660 Climbing Salt Lake Center
12:11PM 38.7506 -110.9006 155° Southeast 445 512 34,900 420 Climbing Salt Lake Center
12:12PM 38.6425 -110.8342 154° Southeast 449 517 35,000 300 Climbing Salt Lake Center
12:13PM 38.5431 -110.7067 135° Southeast 450 518 35,600 840 Climbing Salt Lake Center
12:14PM 38.4958 -110.5986 119° Southeast 440 506 36,600 720 Climbing Denver Center
12:15PM 38.4539 -110.4692 112° Southeast 417 480 37,000 180 Climbing Denver Center
12:16PM 38.4061 -110.3133 111° Southeast 423 487 37,000  Level Denver Center
12:17PM 38.3614 -110.1758 112° Southeast 437 503 37,000  Level Denver Center
12:18PM 38.3097 -110.0131 112° Southeast 443 510 37,000  Level Denver Center
12:19PM 38.2664 -109.8772 112° Southeast 437 503 37,000  Level Denver Center
12:20PM 38.2142 -109.7189 113° Southeast 436 502 37,000  Level Denver Center
12:21PM 38.1708 -109.5836 112° Southeast 433 498 37,000  Level Denver Center
12:23PM 38.0994 -109.4389 122° Southeast 434 499 37,000  Level Denver Center
12:24PM 38.0392 -109.3153 122° Southeast 436 502 37,000  Level Denver Center
12:25PM 37.9781 -109.1900 122° Southeast 435 501 37,000  Level Denver Center
12:26PM 37.9042 -109.0431 122° Southeast 441 507 37,000  Level Denver Center
12:27PM 37.8408 -108.9161 122° Southeast 444 511 37,000  Level Denver Center
12:28PM 37.7650 -108.7675 123° Southeast 447 514 37,000  Level Denver Center
12:29PM 37.7061 -108.6333 119° Southeast 455 524 37,000  Level Denver Center
12:30PM 37.6542 -108.4739 112° Southeast 447 514 37,000  Level Denver Center
12:31PM 37.6089 -108.3322 112° Southeast 450 518 37,000  Level Denver Center
12:32PM 37.5572 -108.1681 112° Southeast 451 519 37,000  Level Denver Center
12:33PM 37.5114 -108.0283 112° Southeast 449 517 37,000  Level Denver Center
12:34PM 37.4586 -107.8658 112° Southeast 450 518 37,000  Level Denver Center
12:35PM 37.4133 -107.7250 112° Southeast 452 520 37,000  Level Denver Center
12:36PM 37.3675 -107.5867 113° Southeast 449 517 37,000  Level Denver Center
12:37PM 37.3144 -107.4239 112° Southeast 448 516 37,000  Level Denver Center
12:38PM 37.2681 -107.2853 113° Southeast 449 517 37,000  Level Denver Center
12:39PM 37.2142 -107.1233 113° Southeast 450 518 37,000  Level Denver Center
12:40PM 37.1678 -106.9858 113° Southeast 447 514 37,000  Level Denver Center
12:41PM 37.1144 -106.8253 113° Southeast 447 514 37,000  Level Denver Center
12:42PM 37.0678 -106.6867 113° Southeast 450 518 37,000  Level Denver Center
12:43PM 37.0142 -106.5269 113° Southeast 446 513 37,000  Level Denver Center
12:44PM 36.9675 -106.3903 113° Southeast 446 513 37,000  Level Denver Center
12:45PM 36.9128 -106.2311 113° Southeast 446 513 37,000  Level Denver Center
12:46PM 36.8619 -106.0839 113° Southeast 447 514 37,000  Level Denver Center
12:47PM 36.8164 -105.9486 113° Southeast 445 512 37,000  Level Denver Center
12:48PM 36.7611 -105.7914 114° Southeast 444 511 37,000  Level Denver Center
12:49PM 36.7144 -105.6581 114° Southeast 442 509 37,000  Level Denver Center
12:50PM 36.6678 -105.5256 114° Southeast 438 504 37,000  Level Denver Center
12:51PM 36.6203 -105.3917 114° Southeast 442 509 37,000  Level Albuquerque Center
12:52PM 36.5744 -105.2600 113° Southeast 435 501 37,000  Level Albuquerque Center
12:53PM 36.5228 -105.1153 114° Southeast 433 498 37,000  Level Albuquerque Center
12:54PM 36.4722 -104.9767 114° Southeast 435 501 37,000  Level Albuquerque Center
12:55PM 36.4225 -104.8347 113° Southeast 440 506 37,000  Level Albuquerque Center
12:56PM 36.3728 -104.6975 114° Southeast 434 499 37,000  Level Albuquerque Center
12:57PM 36.3136 -104.5347 114° Southeast 439 505 37,000  Level Albuquerque Center
12:58PM 36.2622 -104.3972 115° Southeast 436 502 37,000  Level Albuquerque Center
01:00PM 36.2117 -104.2578 114° Southeast 438 504 37,000  Level Albuquerque Center
01:01PM 36.1614 -104.1200 114° Southeast 436 502 37,000  Level Albuquerque Center
01:02PM 36.1103 -103.9811 114° Southeast 438 504 37,000  Level Albuquerque Center
01:03PM 36.0592 -103.8422 114° Southeast 438 504 37,000  Level Albuquerque Center
01:04PM 36.0072 -103.7047 115° Southeast 437 503 37,000  Level Albuquerque Center
01:05PM 35.9564 -103.5669 114° Southeast 436 502 37,000  Level Albuquerque Center
01:06PM 35.9047 -103.4303 115° Southeast 435 501 37,000  Level Albuquerque Center
01:07PM 35.8528 -103.2942 115° Southeast 434 499 37,000  Level Albuquerque Center
01:08PM 35.7944 -103.1378 115° Southeast 429 494 37,000  Level Albuquerque Center
01:09PM 35.7433 -103.0042 115° Southeast 427 491 37,000  Level Albuquerque Center
01:10PM 35.6939 -102.8750 115° Southeast 425 489 37,000  Level Albuquerque Center
01:11PM 35.6442 -102.7442 115° Southeast 424 488 37,000  Level Albuquerque Center
01:12PM 35.5944 -102.6142 115° Southeast 422 486 37,000  Level Albuquerque Center
01:13PM 35.5442 -102.4861 116° Southeast 419 482 37,000  Level Albuquerque Center
01:14PM 35.4942 -102.3558 115° Southeast 421 484 37,000  Level Albuquerque Center
01:15PM 35.4353 -102.2014 115° Southeast 418 481 37,000  Level Albuquerque Center
01:16PM 35.3861 -102.0739 115° Southeast 416 479 37,000  Level Albuquerque Center
01:17PM 35.3347 -101.9331 114° Southeast 418 481 37,000  Level Albuquerque Center
01:18PM 35.2881 -101.8025 114° Southeast 417 480 37,000  Level Albuquerque Center
01:19PM 35.2381 -101.6700 115° Southeast 421 484 37,000  Level Albuquerque Center
01:20PM 35.1892 -101.5303 113° Southeast 423 487 37,000  Level Albuquerque Center
01:21PM 35.1233 -101.4100 124° Southeast 428 493 37,000  Level Albuquerque Center
01:22PM 35.0506 -101.3008 129° Southeast 439 505 37,000  Level Albuquerque Center
01:23PM 34.9742 -101.1861 129° Southeast 438 504 37,000  Level Albuquerque Center
01:24PM 34.8800 -101.0478 130° Southeast 441 507 37,000  Level Albuquerque Center
01:25PM 34.8011 -100.9306 129° Southeast 445 512 37,000  Level Albuquerque Center
01:26PM 34.7208 -100.8125 130° Southeast 451 519 37,000  Level Albuquerque Center
01:27PM 34.6408 -100.6947 130° Southeast 452 520 37,000  Level Albuquerque Center
01:28PM 34.5597 -100.5772 130° Southeast 453 521 37,000  Level Albuquerque Center
01:29PM 34.4789 -100.4575 129° Southeast 457 526 37,000  Level Albuquerque Center
01:30PM 34.3797 -100.3158 130° Southeast 460 529 37,000  Level Albuquerque Center
01:31PM 34.3433 -100.2633 130° Southeast 454 522 37,000  Level Fort Worth Center
01:32PM 34.2603 -100.1425 130° Southeast 459 528 37,000  Level Fort Worth Center
01:33PM 34.1772 -100.0269 131° Southeast 464 534 37,000  Level Fort Worth Center
01:34PM 34.0942 -99.9039 129° Southeast 469 540 37,000  Level Fort Worth Center
01:35PM 34.0111 -99.7839 130° Southeast 464 534 37,000  Level Fort Worth Center
01:36PM 33.9256 -99.6614 130° Southeast 464 534 37,000  Level Fort Worth Center
01:37PM 33.8422 -99.5417 130° Southeast 464 534 37,000  Level Fort Worth Center
01:38PM 33.7544 -99.4219 131° Southeast 464 534 37,000  Level Fort Worth Center
01:39PM 33.6686 -99.3003 130° Southeast 464 534 37,000  Level Fort Worth Center
01:40PM 33.5808 -99.1736 130° Southeast 469 540 37,000  Level Fort Worth Center
01:41PM 33.4967 -99.0550 130° Southeast 469 540 37,000  Level Fort Worth Center
01:42PM 33.4086 -98.9339 131° Southeast 469 540 37,000  Level Fort Worth Center
01:43PM 33.3203 -98.8106 131° Southeast 475 547 37,000  Level Fort Worth Center
01:44PM 33.2339 -98.6900 131° Southeast 475 547 37,000  Level Fort Worth Center
01:45PM 33.1453 -98.5697 131° Southeast 481 554 37,000  Level Fort Worth Center
01:46PM 33.0544 -98.4494 132° Southeast 491 565 37,000  Level Fort Worth Center
01:47PM 32.9739 -98.3369 130° Southeast 483 556 37,000  Level Fort Worth Center
01:48PM 32.8767 -98.2075 132° Southeast 488 562 37,000  Level Fort Worth Center
01:49PM 32.7981 -98.0981 130° Southeast 488 562 37,000  Level Fort Worth Center
01:50PM 32.7028 -97.9714 132° Southeast 483 556 37,000  Level Fort Worth Center
01:51PM 32.6217 -97.8697 133° Southeast 477 549 37,000  Level Fort Worth Center
01:52PM 32.5133 -97.7681 142° Southeast 462 532 37,000 -300 Level Fort Worth Center
01:53PM 32.4239 -97.6842 142° Southeast 462 532 36,400 -900 Descending Fort Worth Center
01:54PM 32.3175 -97.5831 141° Southeast 457 526 35,300 -720 Descending Fort Worth Center
01:55PM 32.2278 -97.5042 143° Southeast 457 526 35,000 -180 Descending Fort Worth Center
01:56PM 32.1194 -97.4011 141° Southeast 462 532 35,000 -180 Level Fort Worth Center
01:57PM 32.0275 -97.3178 142° Southeast 462 532 34,700 -660 Descending Fort Worth Center
01:58PM 31.9272 -97.2225 141° Southeast 462 532 33,700 -1,020 Descending Fort Worth Center
01:59PM 31.8183 -97.1225 142° Southeast 462 532 32,700 -1,020 Descending Fort Worth Center
02:00PM 31.7181 -97.0300 142° Southeast 462 532 31,700 -1,080 Descending Fort Worth Center
02:01PM 31.6050 -96.9269 142° Southeast 452 520 30,500 -1,020 Descending Houston Center
02:02PM 31.4992 -96.8314 142° Southeast 468 539 29,500 -1,020 Descending Houston Center
02:03PM 31.3942 -96.7347 142° Southeast 472 543 28,500 -1,080 Descending Houston Center
02:04PM 31.2914 -96.6417 142° Southeast 463 533 27,400 -1,080 Descending Houston Center
02:05PM 31.1889 -96.5478 142° Southeast 461 531 26,400 -1,020 Descending Houston Center
02:06PM 31.0856 -96.4561 143° Southeast 460 529 25,400 -1,860 Descending Houston Center
02:07PM 30.9828 -96.3617 142° Southeast 463 533 22,600 -2,880 Descending Houston Center
02:08PM 30.8794 -96.2717 143° Southeast 457 526 19,600 -2,940 Descending Houston Center
02:09PM 30.7817 -96.1825 142° Southeast 444 511 16,600 -3,120 Descending Houston Center
02:10PM 30.7197 -96.1306 144° Southeast 427 491 14,700 -2,940 Descending Houston Center
02:10PM 30.6881 -96.0992 140° Southeast 421 484 13,600 -2,940 Descending Houston Center
02:11PM 30.6128 -96.0336 143° Southeast 400 460 11,100 -2,880 Descending Houston Center
02:11PM 30.6036 -96.0219 132° Southeast 405 466 10,700 -1,140 Descending Houston Center
02:12PM 30.5317 -95.9461 138° Southeast 376 433 10,000 -720 Descending Houston Center
02:12PM 30.5261 -95.9394 134° Southeast 382 440 10,000 -120 Level Houston Center
02:13PM 30.4739 -95.8825 137° Southeast 295 339 9,900  Descending Houston Center
02:13PM 30.4489 -95.8583 140° Southeast 308 354 10,000 -180 Climbing Houston Center
02:14PM 30.3919 -95.8339 160° South 296 341 9,700 -600 Descending Houston Center
02:14PM 30.3733 -95.8350 183° South 306 352 9,400 -1,320 Descending Houston Center
02:15PM 30.3119 -95.8311 177° South 278 320 8,400 -1,260 Descending Houston Center
02:15PM 30.2958 -95.8317 182° South 282 325 8,100 -420 Descending Houston Center
02:16PM 30.2322 -95.8331 181° South 271 312 8,000 -120 Descending Houston Center
02:16PM 30.2208 -95.8328 179° South 272 313 8,000  Level Houston Center
02:17PM 30.1628 -95.8314 179° South 238 274 8,000  Level Houston Center
02:17PM 30.1536 -95.8264 155° Southeast 249 287 8,000 -120 Level Houston Center
02:18PM 30.1061 -95.7825 141° Southeast 254 292 7,900 -300 Descending Houston Center
02:19PM 30.0994 -95.7750 136° Southeast 253 291 7,700 -1,200 Descending Houston Center
02:19PM 30.0517 -95.7358 145° Southeast 246 283 6,700 -1,140 Descending Houston Center
02:20PM 30.0447 -95.7283 137° Southeast 246 283 6,600 -1,140 Descending Houston Center
02:20PM 29.9989 -95.6864 142° Southeast 230 265 5,600 -1,380 Descending Houston Center
02:21PM 29.9931 -95.6689 111° Southeast 225 259 5,200 -1,380 Descending Houston Center
02:21PM 29.9925 -95.6147 91° East 222 255 4,200 -1,500 Descending Houston Center
02:22PM 29.9942 -95.5953 84° East 230 265 3,700 -900 Descending Houston Center
02:22PM 29.9925 -95.5450 92° East 219 252 3,300 -600 Descending Houston Center
02:23PM 29.9931 -95.5256 88° East 222 255 3,100 -600 Descending Houston Center